»·PEaware :: N2442P KRDD-KSAC

N2442P :: KRDD-KSAC

FLIGHT INFORMATION

Flight Status: Arrived
Operator: Privately registered:
United States
More flights under this callsign
Pilot: Ken Q. (14290)
Aircraft: MOONEY M-20K/M ENCORE BRAVO
(M20T)
More flights by this aircraft type
Origin: KRDD Redding Mun
United States
Destination: KSAC Sacramento Executive
United States
More flights between these airports :: More routes between these airports
Route: KRDD CIC MYV MCC KSAV
File this flight plan on PilotEdge
Remarks: X
Altitude:
(Current/Filed)
5,500ft
Speed:
(Current/Filed)
175kts
Departed: 24-Nov-20 01:52 PM
Arrived: 24-Nov-20 02:43 PM
Distance/Time
Traveled:
0nm/0:50
Distance/Time
To Go:
Arrived

Flight Plot

Page will automatically refresh every two minutes.

Flight plan parsing failed; only flown route is shown


Map Options




Map Legend


Flown Route
Filed Route
Departure Airport
Arrival Airport
Navaid (VOR, NDB)
Fix

Horizontal Profiles

Position Reports

Time Latitude Longitude Heading Altitude Ground
Speed
24-Nov-20 13:26 40.509942 -122.298272 0 506ft 0kts
24-Nov-20 13:27 40.509942 -122.298272 0 506ft 0kts
24-Nov-20 13:28 40.509942 -122.298272 0 506ft 0kts
24-Nov-20 13:29 40.509942 -122.298272 0 506ft 0kts
24-Nov-20 13:30 40.509942 -122.298272 0 506ft 0kts
24-Nov-20 13:31 40.509942 -122.298272 0 506ft 0kts
24-Nov-20 13:32 40.509942 -122.298272 0 506ft 0kts
24-Nov-20 13:33 40.509942 -122.298272 0 506ft 0kts
24-Nov-20 13:34 40.509942 -122.298272 0 506ft 0kts
24-Nov-20 13:35 40.509942 -122.298272 0 506ft 0kts
24-Nov-20 13:36 40.509942 -122.298272 0 506ft 0kts
24-Nov-20 13:37 40.509942 -122.298272 0 506ft 0kts
24-Nov-20 13:38 40.509942 -122.298272 0 506ft 0kts
24-Nov-20 13:39 40.509942 -122.298272 0 506ft 0kts
24-Nov-20 13:40 40.509943 -122.298272 0 506ft 0kts
24-Nov-20 13:41 40.509944 -122.298272 0 506ft 0kts
24-Nov-20 13:42 40.509945 -122.298272 0 506ft 0kts
24-Nov-20 13:43 40.509946 -122.298272 0 506ft 0kts
24-Nov-20 13:44 40.509947 -122.298272 0 506ft 0kts
24-Nov-20 13:45 40.510049 -122.298355 296 506ft 5kts
24-Nov-20 13:46 40.513054 -122.298411 6 506ft 16kts
24-Nov-20 13:47 40.516738 -122.296305 4 506ft 10kts
24-Nov-20 13:48 40.520465 -122.296230 11 506ft 0kts
24-Nov-20 13:49 40.520474 -122.296227 11 506ft 0kts
24-Nov-20 13:50 40.520269 -122.295931 94 506ft 0kts
24-Nov-20 13:51 40.518261 -122.294862 179 506ft 47kts
24-Nov-20 13:52 40.491120 -122.295779 183 963ft 109kts
24-Nov-20 13:53 40.458604 -122.287610 149 1761ft 135kts
24-Nov-20 13:54 40.423972 -122.261226 148 2488ft 151kts
24-Nov-20 13:55 40.387189 -122.233696 148 3181ft 151kts
24-Nov-20 13:56 40.351830 -122.204033 143 3871ft 151kts
24-Nov-20 13:57 40.315578 -122.176191 148 4568ft 152kts
24-Nov-20 13:58 40.278663 -122.148856 148 5254ft 151kts
24-Nov-20 13:59 40.239853 -122.120265 148 5516ft 172kts
24-Nov-20 14:00 40.195954 -122.088704 151 5510ft 183kts
24-Nov-20 14:01 40.150794 -122.059793 153 5513ft 179kts
24-Nov-20 14:02 40.105571 -122.032666 154 5515ft 178kts
24-Nov-20 14:03 40.059613 -122.007303 156 5515ft 179kts
24-Nov-20 14:04 40.013620 -121.982161 156 5520ft 179kts
24-Nov-20 14:05 39.967536 -121.956980 156 5523ft 179kts
24-Nov-20 14:06 39.921837 -121.932025 156 5527ft 177kts
24-Nov-20 14:07 39.876500 -121.905854 154 5527ft 178kts
24-Nov-20 14:08 39.831423 -121.878875 154 5529ft 177kts
24-Nov-20 14:09 39.784951 -121.855419 161 5527ft 180kts
24-Nov-20 14:10 39.737911 -121.832709 154 5528ft 180kts
24-Nov-20 14:11 39.692309 -121.806083 157 5531ft 180kts
24-Nov-20 14:12 39.645174 -121.783416 162 5503ft 181kts
24-Nov-20 14:13 39.596530 -121.765152 163 5501ft 182kts
24-Nov-20 14:14 39.547998 -121.747082 163 5503ft 180kts
24-Nov-20 14:15 39.499415 -121.729004 163 5501ft 182kts
24-Nov-20 14:16 39.451018 -121.711006 163 5503ft 180kts
24-Nov-20 14:17 39.402158 -121.692681 163 5338ft 184kts
24-Nov-20 14:18 39.353758 -121.674577 163 4834ft 176kts
24-Nov-20 14:20 39.306833 -121.657096 163 4334ft 174kts
24-Nov-20 14:21 39.261199 -121.640180 162 4100ft 163kts
24-Nov-20 14:22 39.218311 -121.624271 162 4102ft 158kts
24-Nov-20 14:23 39.174074 -121.607832 162 4105ft 170kts
24-Nov-20 14:24 39.128115 -121.590232 157 4102ft 172kts
24-Nov-20 14:25 39.085225 -121.562665 150 4090ft 168kts
24-Nov-20 14:26 39.045562 -121.534746 149 4090ft 157kts
24-Nov-20 14:27 39.007427 -121.508034 149 4086ft 156kts
24-Nov-20 14:28 38.968521 -121.480913 149 3871ft 167kts
24-Nov-20 14:29 38.929800 -121.450868 144 3088ft 149kts
24-Nov-20 14:30 38.897023 -121.422819 144 2277ft 136kts
24-Nov-20 14:31 38.864472 -121.400520 169 1615ft 131kts
24-Nov-20 14:32 38.829072 -121.399049 180 1088ft 123kts
24-Nov-20 14:33 38.799642 -121.413923 204 990ft 107kts
24-Nov-20 14:34 38.772018 -121.426587 192 995ft 105kts
24-Nov-20 14:35 38.743515 -121.434475 189 998ft 103kts
24-Nov-20 14:36 38.710854 -121.441024 187 1013ft 137kts
24-Nov-20 14:37 38.671127 -121.447762 187 1004ft 148kts
24-Nov-20 14:37 38.636421 -121.453866 187 995ft 152kts
24-Nov-20 14:39 38.592482 -121.458823 191 978ft 113kts
24-Nov-20 14:39 38.571729 -121.472037 187 948ft 99kts
24-Nov-20 14:41 38.542577 -121.475401 189 603ft 87kts
24-Nov-20 14:41 38.524336 -121.484778 213 242ft 81kts
24-Nov-20 14:42 38.511351 -121.496198 273 27ft 15kts
24-Nov-20 14:43 38.512496 -121.496354 34 27ft 22kts
24-Nov-20 14:44 38.514317 -121.497901 239 27ft 8kts
24-Nov-20 14:45 38.514233 -121.498014 220 27ft 0kts
24-Nov-20 14:46 38.514233 -121.498014 220 27ft 0kts
24-Nov-20 14:47 38.514233 -121.498014 220 27ft 0kts
24-Nov-20 14:48 38.514233 -121.498014 220 27ft 0kts
24-Nov-20 14:49 38.514233 -121.498014 220 27ft 0kts
24-Nov-20 14:51 40.509942 -122.298272 0 506ft 0kts
24-Nov-20 14:52 40.509942 -122.298272 0 506ft 0kts

Navigation Log

Ident Type
Flight plan parsing failed, navigation log unavailable